sensor_id;sensor_type;location;lat;lon;timestamp;P1;durP1;ratioP1;P2;durP2;ratioP2
66739;SDS011;53653;52.188;8.602;2023-02-26T00:01:47;8.45;;;2.50;;
66739;SDS011;53653;52.188;8.602;2023-02-26T00:04:14;6.15;;;2.38;;
66739;SDS011;53653;52.188;8.602;2023-02-26T00:06:39;6.10;;;2.00;;
66739;SDS011;53653;52.188;8.602;2023-02-26T00:09:20;7.43;;;3.47;;
66739;SDS011;53653;52.188;8.602;2023-02-26T00:11:46;6.32;;;2.10;;
66739;SDS011;53653;52.188;8.602;2023-02-26T00:14:13;6.03;;;2.20;;
66739;SDS011;53653;52.188;8.602;2023-02-26T00:16:40;5.22;;;1.55;;
66739;SDS011;53653;52.188;8.602;2023-02-26T00:19:07;8.63;;;2.70;;
66739;SDS011;53653;52.188;8.602;2023-02-26T00:21:35;6.00;;;2.15;;
66739;SDS011;53653;52.188;8.602;2023-02-26T00:24:01;7.63;;;2.58;;
66739;SDS011;53653;52.188;8.602;2023-02-26T00:26:28;6.40;;;2.28;;
66739;SDS011;53653;52.188;8.602;2023-02-26T00:28:55;4.20;;;1.60;;
66739;SDS011;53653;52.188;8.602;2023-02-26T00:31:22;5.87;;;2.27;;
66739;SDS011;53653;52.188;8.602;2023-02-26T00:33:52;6.10;;;2.00;;
66739;SDS011;53653;52.188;8.602;2023-02-26T00:36:21;7.07;;;2.20;;
66739;SDS011;53653;52.188;8.602;2023-02-26T00:41:43;9.57;;;2.05;;
66739;SDS011;53653;52.188;8.602;2023-02-26T00:44:10;6.47;;;2.10;;
66739;SDS011;53653;52.188;8.602;2023-02-26T00:46:51;6.05;;;2.28;;
66739;SDS011;53653;52.188;8.602;2023-02-26T00:52:00;3.90;;;1.90;;
66739;SDS011;53653;52.188;8.602;2023-02-26T00:54:29;5.20;;;2.25;;
66739;SDS011;53653;52.188;8.602;2023-02-26T00:56:56;6.23;;;2.70;;
66739;SDS011;53653;52.188;8.602;2023-02-26T00:59:25;7.10;;;1.90;;
66739;SDS011;53653;52.188;8.602;2023-02-26T01:01:51;5.43;;;2.03;;
66739;SDS011;53653;52.188;8.602;2023-02-26T01:04:18;5.80;;;2.30;;
66739;SDS011;53653;52.188;8.602;2023-02-26T01:06:47;5.15;;;1.80;;
66739;SDS011;53653;52.188;8.602;2023-02-26T01:11:46;4.88;;;2.20;;
66739;SDS011;53653;52.188;8.602;2023-02-26T01:14:13;4.85;;;1.70;;
66739;SDS011;53653;52.188;8.602;2023-02-26T01:16:50;5.17;;;1.93;;
66739;SDS011;53653;52.188;8.602;2023-02-26T01:22:01;6.10;;;2.05;;
66739;SDS011;53653;52.188;8.602;2023-02-26T01:24:32;4.07;;;1.35;;
66739;SDS011;53653;52.188;8.602;2023-02-26T01:27:00;3.72;;;1.50;;
66739;SDS011;53653;52.188;8.602;2023-02-26T01:29:26;4.60;;;1.60;;
66739;SDS011;53653;52.188;8.602;2023-02-26T01:32:26;4.22;;;1.50;;
66739;SDS011;53653;52.188;8.602;2023-02-26T01:38:02;5.90;;;1.50;;
66739;SDS011;53653;52.188;8.602;2023-02-26T01:43:56;4.53;;;1.52;;
66739;SDS011;53653;52.188;8.602;2023-02-26T01:47:44;7.65;;;2.17;;
66739;SDS011;53653;52.188;8.602;2023-02-26T01:49:49;5.60;;;2.37;;
66739;SDS011;53653;52.188;8.602;2023-02-26T01:54:59;6.63;;;1.65;;
66739;SDS011;53653;52.188;8.602;2023-02-26T01:57:24;4.70;;;1.20;;
66739;SDS011;53653;52.188;8.602;2023-02-26T01:59:51;7.60;;;2.28;;
66739;SDS011;53653;52.188;8.602;2023-02-26T02:02:19;6.78;;;2.30;;
66739;SDS011;53653;52.188;8.602;2023-02-26T02:04:47;4.18;;;1.52;;
66739;SDS011;53653;52.188;8.602;2023-02-26T02:07:14;5.93;;;1.50;;
66739;SDS011;53653;52.188;8.602;2023-02-26T02:09:40;5.40;;;1.90;;
66739;SDS011;53653;52.188;8.602;2023-02-26T02:12:09;6.60;;;1.77;;
66739;SDS011;53653;52.188;8.602;2023-02-26T02:14:42;6.32;;;2.00;;
66739;SDS011;53653;52.188;8.602;2023-02-26T02:20:07;6.22;;;2.03;;
66739;SDS011;53653;52.188;8.602;2023-02-26T02:39:32;6.47;;;1.73;;
66739;SDS011;53653;52.188;8.602;2023-02-26T02:42:15;5.90;;;2.13;;
66739;SDS011;53653;52.188;8.602;2023-02-26T02:44:56;5.15;;;1.40;;
66739;SDS011;53653;52.188;8.602;2023-02-26T02:47:25;3.90;;;1.38;;
66739;SDS011;53653;52.188;8.602;2023-02-26T02:56:04;4.50;;;1.67;;
66739;SDS011;53653;52.188;8.602;2023-02-26T02:58:36;6.03;;;1.58;;
66739;SDS011;53653;52.188;8.602;2023-02-26T03:01:08;3.80;;;1.45;;
66739;SDS011;53653;52.188;8.602;2023-02-26T03:06:21;4.82;;;1.45;;
66739;SDS011;53653;52.188;8.602;2023-02-26T03:08:48;5.03;;;1.55;;
66739;SDS011;53653;52.188;8.602;2023-02-26T03:11:15;6.63;;;1.90;;
66739;SDS011;53653;52.188;8.602;2023-02-26T03:13:42;4.90;;;1.77;;
66739;SDS011;53653;52.188;8.602;2023-02-26T03:16:26;3.90;;;1.33;;
66739;SDS011;53653;52.188;8.602;2023-02-26T03:22:05;7.05;;;1.77;;
66739;SDS011;53653;52.188;8.602;2023-02-26T03:24:54;4.07;;;1.55;;
66739;SDS011;53653;52.188;8.602;2023-02-26T03:27:33;9.73;;;2.17;;
66739;SDS011;53653;52.188;8.602;2023-02-26T03:30:05;4.53;;;1.70;;
66739;SDS011;53653;52.188;8.602;2023-02-26T03:32:48;3.38;;;1.20;;
66739;SDS011;53653;52.188;8.602;2023-02-26T03:35:28;6.38;;;1.80;;
66739;SDS011;53653;52.188;8.602;2023-02-26T03:37:57;5.25;;;1.70;;
66739;SDS011;53653;52.188;8.602;2023-02-26T03:40:36;4.53;;;1.70;;
66739;SDS011;53653;52.188;8.602;2023-02-26T03:43:24;4.50;;;1.77;;
66739;SDS011;53653;52.188;8.602;2023-02-26T03:45:56;5.85;;;1.63;;
66739;SDS011;53653;52.188;8.602;2023-02-26T03:48:26;7.72;;;2.35;;
66739;SDS011;53653;52.188;8.602;2023-02-26T03:50:57;5.90;;;1.70;;
66739;SDS011;53653;52.188;8.602;2023-02-26T03:53:33;6.65;;;1.88;;
66739;SDS011;53653;52.188;8.602;2023-02-26T03:59:19;4.75;;;1.75;;
66739;SDS011;53653;52.188;8.602;2023-02-26T04:04:16;10.00;;;2.10;;
66739;SDS011;53653;52.188;8.602;2023-02-26T04:06:55;4.63;;;1.40;;
66739;SDS011;53653;52.188;8.602;2023-02-26T04:09:21;5.05;;;1.73;;
66739;SDS011;53653;52.188;8.602;2023-02-26T04:11:48;5.72;;;1.50;;
66739;SDS011;53653;52.188;8.602;2023-02-26T04:14:15;5.47;;;1.67;;
66739;SDS011;53653;52.188;8.602;2023-02-26T04:16:42;4.50;;;1.60;;
66739;SDS011;53653;52.188;8.602;2023-02-26T04:19:08;5.80;;;1.67;;
66739;SDS011;53653;52.188;8.602;2023-02-26T04:21:35;6.50;;;1.98;;
66739;SDS011;53653;52.188;8.602;2023-02-26T04:24:03;4.63;;;1.58;;
66739;SDS011;53653;52.188;8.602;2023-02-26T04:26:29;4.73;;;1.90;;
66739;SDS011;53653;52.188;8.602;2023-02-26T04:28:54;7.65;;;1.80;;
66739;SDS011;53653;52.188;8.602;2023-02-26T04:31:20;4.10;;;1.93;;
66739;SDS011;53653;52.188;8.602;2023-02-26T04:33:45;5.70;;;1.57;;
66739;SDS011;53653;52.188;8.602;2023-02-26T04:36:11;9.30;;;1.83;;
66739;SDS011;53653;52.188;8.602;2023-02-26T04:38:37;4.03;;;1.80;;
66739;SDS011;53653;52.188;8.602;2023-02-26T04:41:03;5.65;;;1.63;;
66739;SDS011;53653;52.188;8.602;2023-02-26T04:43:30;4.70;;;1.80;;
66739;SDS011;53653;52.188;8.602;2023-02-26T04:46:11;6.88;;;1.65;;
66739;SDS011;53653;52.188;8.602;2023-02-26T04:48:36;5.63;;;1.50;;
66739;SDS011;53653;52.188;8.602;2023-02-26T04:51:02;2.93;;;1.10;;
66739;SDS011;53653;52.188;8.602;2023-02-26T04:53:28;7.20;;;1.50;;
66739;SDS011;53653;52.188;8.602;2023-02-26T04:55:54;4.20;;;1.60;;
66739;SDS011;53653;52.188;8.602;2023-02-26T04:58:20;4.80;;;1.90;;
66739;SDS011;53653;52.188;8.602;2023-02-26T05:00:49;4.43;;;1.40;;
66739;SDS011;53653;52.188;8.602;2023-02-26T05:03:15;3.85;;;1.73;;
66739;SDS011;53653;52.188;8.602;2023-02-26T05:05:41;4.25;;;1.65;;
66739;SDS011;53653;52.188;8.602;2023-02-26T05:08:08;5.03;;;1.60;;
66739;SDS011;53653;52.188;8.602;2023-02-26T05:10:33;5.07;;;1.80;;
66739;SDS011;53653;52.188;8.602;2023-02-26T05:12:59;5.82;;;1.70;;
66739;SDS011;53653;52.188;8.602;2023-02-26T05:15:24;5.07;;;1.40;;
66739;SDS011;53653;52.188;8.602;2023-02-26T05:17:50;7.03;;;2.20;;
66739;SDS011;53653;52.188;8.602;2023-02-26T05:20:16;4.78;;;2.05;;
66739;SDS011;53653;52.188;8.602;2023-02-26T05:22:42;7.45;;;1.90;;
66739;SDS011;53653;52.188;8.602;2023-02-26T05:25:08;3.70;;;1.50;;
66739;SDS011;53653;52.188;8.602;2023-02-26T05:27:36;4.60;;;1.48;;
66739;SDS011;53653;52.188;8.602;2023-02-26T05:30:01;5.40;;;2.17;;
66739;SDS011;53653;52.188;8.602;2023-02-26T05:32:27;5.47;;;1.70;;
66739;SDS011;53653;52.188;8.602;2023-02-26T05:34:56;6.10;;;1.80;;
66739;SDS011;53653;52.188;8.602;2023-02-26T05:37:21;3.42;;;1.35;;
66739;SDS011;53653;52.188;8.602;2023-02-26T05:39:47;7.67;;;1.93;;
66739;SDS011;53653;52.188;8.602;2023-02-26T05:42:12;8.37;;;2.37;;
66739;SDS011;53653;52.188;8.602;2023-02-26T05:44:38;5.93;;;1.60;;
66739;SDS011;53653;52.188;8.602;2023-02-26T05:47:03;5.57;;;1.92;;
66739;SDS011;53653;52.188;8.602;2023-02-26T05:49:30;5.32;;;1.83;;
66739;SDS011;53653;52.188;8.602;2023-02-26T05:51:56;6.43;;;1.83;;
66739;SDS011;53653;52.188;8.602;2023-02-26T05:54:26;5.90;;;1.70;;
66739;SDS011;53653;52.188;8.602;2023-02-26T05:56:51;3.13;;;1.30;;
66739;SDS011;53653;52.188;8.602;2023-02-26T05:59:19;5.18;;;1.60;;
66739;SDS011;53653;52.188;8.602;2023-02-26T06:01:45;4.22;;;1.40;;
66739;SDS011;53653;52.188;8.602;2023-02-26T06:04:10;3.50;;;1.13;;
66739;SDS011;53653;52.188;8.602;2023-02-26T06:06:36;3.90;;;1.80;;
66739;SDS011;53653;52.188;8.602;2023-02-26T06:09:02;5.87;;;1.47;;
66739;SDS011;53653;52.188;8.602;2023-02-26T06:11:28;4.22;;;1.60;;
66739;SDS011;53653;52.188;8.602;2023-02-26T06:13:54;3.50;;;1.38;;
66739;SDS011;53653;52.188;8.602;2023-02-26T06:16:20;5.23;;;1.63;;
66739;SDS011;53653;52.188;8.602;2023-02-26T06:18:46;5.22;;;1.70;;
66739;SDS011;53653;52.188;8.602;2023-02-26T06:21:12;4.47;;;1.52;;
66739;SDS011;53653;52.188;8.602;2023-02-26T06:23:38;4.38;;;1.70;;
66739;SDS011;53653;52.188;8.602;2023-02-26T06:26:05;5.57;;;1.53;;
66739;SDS011;53653;52.188;8.602;2023-02-26T06:28:30;6.80;;;1.70;;
66739;SDS011;53653;52.188;8.602;2023-02-26T06:30:56;5.45;;;1.60;;
66739;SDS011;53653;52.188;8.602;2023-02-26T06:33:22;3.30;;;1.30;;
66739;SDS011;53653;52.188;8.602;2023-02-26T06:35:48;4.25;;;1.58;;
66739;SDS011;53653;52.188;8.602;2023-02-26T06:38:14;8.23;;;1.53;;
66739;SDS011;53653;52.188;8.602;2023-02-26T06:40:41;5.03;;;1.70;;
66739;SDS011;53653;52.188;8.602;2023-02-26T06:43:06;4.30;;;1.42;;
66739;SDS011;53653;52.188;8.602;2023-02-26T06:45:32;4.67;;;1.43;;
66739;SDS011;53653;52.188;8.602;2023-02-26T06:47:57;6.75;;;2.17;;
66739;SDS011;53653;52.188;8.602;2023-02-26T06:50:23;3.10;;;1.37;;
66739;SDS011;53653;52.188;8.602;2023-02-26T06:52:48;5.43;;;1.47;;
66739;SDS011;53653;52.188;8.602;2023-02-26T06:55:15;4.50;;;1.25;;
66739;SDS011;53653;52.188;8.602;2023-02-26T06:57:41;3.67;;;1.23;;
66739;SDS011;53653;52.188;8.602;2023-02-26T07:00:08;5.30;;;1.33;;
66739;SDS011;53653;52.188;8.602;2023-02-26T07:02:35;4.23;;;1.93;;
66739;SDS011;53653;52.188;8.602;2023-02-26T07:05:00;5.60;;;1.73;;
66739;SDS011;53653;52.188;8.602;2023-02-26T07:07:26;3.97;;;1.63;;
66739;SDS011;53653;52.188;8.602;2023-02-26T07:09:51;8.63;;;1.67;;
66739;SDS011;53653;52.188;8.602;2023-02-26T07:12:17;3.30;;;1.30;;
66739;SDS011;53653;52.188;8.602;2023-02-26T07:14:43;5.70;;;2.10;;
66739;SDS011;53653;52.188;8.602;2023-02-26T07:17:09;6.30;;;1.60;;
66739;SDS011;53653;52.188;8.602;2023-02-26T07:19:46;6.72;;;2.47;;
66739;SDS011;53653;52.188;8.602;2023-02-26T07:22:13;6.63;;;1.77;;
66739;SDS011;53653;52.188;8.602;2023-02-26T07:24:40;7.32;;;1.95;;
66739;SDS011;53653;52.188;8.602;2023-02-26T07:27:06;5.95;;;1.98;;
66739;SDS011;53653;52.188;8.602;2023-02-26T07:29:31;7.90;;;1.90;;
66739;SDS011;53653;52.188;8.602;2023-02-26T07:31:57;4.93;;;2.27;;
66739;SDS011;53653;52.188;8.602;2023-02-26T07:34:23;5.05;;;1.70;;
66739;SDS011;53653;52.188;8.602;2023-02-26T07:36:49;4.10;;;1.30;;
66739;SDS011;53653;52.188;8.602;2023-02-26T07:39:15;6.53;;;1.55;;
66739;SDS011;53653;52.188;8.602;2023-02-26T07:41:40;6.33;;;1.53;;
66739;SDS011;53653;52.188;8.602;2023-02-26T07:44:12;5.07;;;1.50;;
66739;SDS011;53653;52.188;8.602;2023-02-26T07:46:38;5.15;;;1.58;;
66739;SDS011;53653;52.188;8.602;2023-02-26T07:49:04;4.00;;;1.33;;
66739;SDS011;53653;52.188;8.602;2023-02-26T07:51:30;3.72;;;1.30;;
66739;SDS011;53653;52.188;8.602;2023-02-26T07:53:56;6.33;;;1.50;;
66739;SDS011;53653;52.188;8.602;2023-02-26T07:56:22;7.15;;;1.77;;
66739;SDS011;53653;52.188;8.602;2023-02-26T07:58:48;5.07;;;1.10;;
66739;SDS011;53653;52.188;8.602;2023-02-26T08:01:15;5.50;;;1.40;;
66739;SDS011;53653;52.188;8.602;2023-02-26T08:03:40;6.18;;;1.58;;
66739;SDS011;53653;52.188;8.602;2023-02-26T08:06:06;7.63;;;2.00;;
66739;SDS011;53653;52.188;8.602;2023-02-26T08:08:33;4.05;;;1.48;;
66739;SDS011;53653;52.188;8.602;2023-02-26T08:10:59;5.20;;;1.40;;
66739;SDS011;53653;52.188;8.602;2023-02-26T08:13:26;5.00;;;1.73;;
66739;SDS011;53653;52.188;8.602;2023-02-26T08:15:51;4.57;;;1.77;;
66739;SDS011;53653;52.188;8.602;2023-02-26T08:18:17;7.00;;;1.87;;
66739;SDS011;53653;52.188;8.602;2023-02-26T08:20:43;5.45;;;1.55;;
66739;SDS011;53653;52.188;8.602;2023-02-26T08:23:08;5.30;;;1.53;;
66739;SDS011;53653;52.188;8.602;2023-02-26T08:25:34;4.83;;;1.70;;
66739;SDS011;53653;52.188;8.602;2023-02-26T08:27:59;4.72;;;1.33;;
66739;SDS011;53653;52.188;8.602;2023-02-26T08:30:26;5.15;;;1.58;;
66739;SDS011;53653;52.188;8.602;2023-02-26T08:32:52;4.23;;;1.40;;
66739;SDS011;53653;52.188;8.602;2023-02-26T08:35:18;5.45;;;1.90;;
66739;SDS011;53653;52.188;8.602;2023-02-26T08:37:43;6.90;;;1.90;;
66739;SDS011;53653;52.188;8.602;2023-02-26T08:40:10;6.87;;;1.70;;
66739;SDS011;53653;52.188;8.602;2023-02-26T08:42:36;5.85;;;1.65;;
66739;SDS011;53653;52.188;8.602;2023-02-26T08:45:01;4.50;;;1.03;;
66739;SDS011;53653;52.188;8.602;2023-02-26T08:47:27;3.85;;;1.35;;
66739;SDS011;53653;52.188;8.602;2023-02-26T08:49:53;4.78;;;1.45;;
66739;SDS011;53653;52.188;8.602;2023-02-26T08:52:19;4.27;;;1.23;;
66739;SDS011;53653;52.188;8.602;2023-02-26T08:54:44;7.60;;;1.40;;
66739;SDS011;53653;52.188;8.602;2023-02-26T08:57:10;4.17;;;1.47;;
66739;SDS011;53653;52.188;8.602;2023-02-26T08:59:36;3.80;;;1.30;;
66739;SDS011;53653;52.188;8.602;2023-02-26T09:02:02;4.63;;;1.20;;
66739;SDS011;53653;52.188;8.602;2023-02-26T09:04:28;3.45;;;1.00;;
66739;SDS011;53653;52.188;8.602;2023-02-26T09:06:53;5.00;;;1.50;;
66739;SDS011;53653;52.188;8.602;2023-02-26T09:09:19;4.38;;;1.30;;
66739;SDS011;53653;52.188;8.602;2023-02-26T09:11:45;5.30;;;1.40;;
66739;SDS011;53653;52.188;8.602;2023-02-26T09:14:12;6.78;;;1.27;;
66739;SDS011;53653;52.188;8.602;2023-02-26T09:16:37;5.45;;;1.27;;
66739;SDS011;53653;52.188;8.602;2023-02-26T09:19:04;5.33;;;1.30;;
66739;SDS011;53653;52.188;8.602;2023-02-26T09:21:30;4.32;;;1.40;;
66739;SDS011;53653;52.188;8.602;2023-02-26T09:23:55;11.95;;;1.45;;
66739;SDS011;53653;52.188;8.602;2023-02-26T09:26:21;3.27;;;1.00;;
66739;SDS011;53653;52.188;8.602;2023-02-26T09:28:47;3.30;;;1.10;;
66739;SDS011;53653;52.188;8.602;2023-02-26T09:31:12;4.82;;;1.23;;
66739;SDS011;53653;52.188;8.602;2023-02-26T09:33:38;3.30;;;1.07;;
66739;SDS011;53653;52.188;8.602;2023-02-26T09:36:03;4.20;;;1.23;;
66739;SDS011;53653;52.188;8.602;2023-02-26T09:38:30;3.45;;;1.08;;
66739;SDS011;53653;52.188;8.602;2023-02-26T09:40:57;6.68;;;1.50;;
66739;SDS011;53653;52.188;8.602;2023-02-26T09:52:52;3.78;;;1.05;;
66739;SDS011;53653;52.188;8.602;2023-02-26T09:55:33;4.38;;;1.20;;
66739;SDS011;53653;52.188;8.602;2023-02-26T09:58:18;4.78;;;1.10;;
66739;SDS011;53653;52.188;8.602;2023-02-26T10:03:26;3.33;;;1.10;;
66739;SDS011;53653;52.188;8.602;2023-02-26T10:08:56;3.13;;;1.00;;
66739;SDS011;53653;52.188;8.602;2023-02-26T10:11:46;5.45;;;1.30;;
66739;SDS011;53653;52.188;8.602;2023-02-26T10:14:32;3.85;;;1.20;;
66739;SDS011;53653;52.188;8.602;2023-02-26T10:20:24;5.75;;;1.20;;
66739;SDS011;53653;52.188;8.602;2023-02-26T10:25:41;7.63;;;1.30;;
66739;SDS011;53653;52.188;8.602;2023-02-26T10:30:50;5.07;;;1.20;;
66739;SDS011;53653;52.188;8.602;2023-02-26T10:33:26;7.65;;;1.58;;
66739;SDS011;53653;52.188;8.602;2023-02-26T10:35:57;5.40;;;1.45;;
66739;SDS011;53653;52.188;8.602;2023-02-26T10:38:32;4.40;;;1.20;;
66739;SDS011;53653;52.188;8.602;2023-02-26T10:41:03;5.83;;;1.43;;
66739;SDS011;53653;52.188;8.602;2023-02-26T10:43:40;5.53;;;1.70;;
66739;SDS011;53653;52.188;8.602;2023-02-26T10:49:19;5.18;;;0.93;;
66739;SDS011;53653;52.188;8.602;2023-02-26T10:52:00;4.07;;;1.17;;
66739;SDS011;53653;52.188;8.602;2023-02-26T10:57:39;2.70;;;1.08;;
66739;SDS011;53653;52.188;8.602;2023-02-26T11:00:14;3.90;;;1.40;;
66739;SDS011;53653;52.188;8.602;2023-02-26T11:02:44;4.82;;;1.48;;
66739;SDS011;53653;52.188;8.602;2023-02-26T11:05:16;6.90;;;1.60;;
66739;SDS011;53653;52.188;8.602;2023-02-26T11:07:53;3.00;;;1.10;;
66739;SDS011;53653;52.188;8.602;2023-02-26T11:10:25;5.97;;;1.50;;
66739;SDS011;53653;52.188;8.602;2023-02-26T11:13:02;4.93;;;1.55;;
66739;SDS011;53653;52.188;8.602;2023-02-26T11:15:28;6.47;;;1.55;;
66739;SDS011;53653;52.188;8.602;2023-02-26T11:17:55;3.80;;;1.30;;
66739;SDS011;53653;52.188;8.602;2023-02-26T11:22:55;4.15;;;1.40;;
66739;SDS011;53653;52.188;8.602;2023-02-26T11:25:23;4.45;;;1.38;;
66739;SDS011;53653;52.188;8.602;2023-02-26T11:27:54;6.03;;;1.52;;
66739;SDS011;53653;52.188;8.602;2023-02-26T11:30:25;4.13;;;1.40;;
66739;SDS011;53653;52.188;8.602;2023-02-26T11:32:56;6.70;;;1.27;;
66739;SDS011;53653;52.188;8.602;2023-02-26T11:35:28;8.80;;;1.83;;
66739;SDS011;53653;52.188;8.602;2023-02-26T11:37:57;7.10;;;2.17;;
66739;SDS011;53653;52.188;8.602;2023-02-26T11:40:37;5.65;;;2.00;;
66739;SDS011;53653;52.188;8.602;2023-02-26T11:43:07;4.63;;;1.40;;
66739;SDS011;53653;52.188;8.602;2023-02-26T11:45:38;3.97;;;1.20;;
66739;SDS011;53653;52.188;8.602;2023-02-26T11:48:10;3.92;;;1.35;;
66739;SDS011;53653;52.188;8.602;2023-02-26T11:50:41;5.22;;;1.70;;
66739;SDS011;53653;52.188;8.602;2023-02-26T11:53:19;5.72;;;1.75;;
66739;SDS011;53653;52.188;8.602;2023-02-26T11:55:52;3.73;;;1.13;;
66739;SDS011;53653;52.188;8.602;2023-02-26T11:58:24;3.30;;;1.15;;
66739;SDS011;53653;52.188;8.602;2023-02-26T12:00:58;3.88;;;1.52;;
66739;SDS011;53653;52.188;8.602;2023-02-26T12:03:26;3.95;;;1.58;;
66739;SDS011;53653;52.188;8.602;2023-02-26T12:05:57;4.03;;;1.25;;
66739;SDS011;53653;52.188;8.602;2023-02-26T12:08:32;5.00;;;1.50;;
66739;SDS011;53653;52.188;8.602;2023-02-26T12:19:11;4.05;;;1.50;;
66739;SDS011;53653;52.188;8.602;2023-02-26T12:26:58;3.77;;;1.30;;
66739;SDS011;53653;52.188;8.602;2023-02-26T12:30:01;6.45;;;1.77;;
66739;SDS011;53653;52.188;8.602;2023-02-26T12:52:04;4.28;;;1.50;;
66739;SDS011;53653;52.188;8.602;2023-02-26T12:55:02;3.77;;;1.40;;
66739;SDS011;53653;52.188;8.602;2023-02-26T13:09:23;5.30;;;1.70;;
66739;SDS011;53653;52.188;8.602;2023-02-26T13:17:53;4.28;;;1.30;;
66739;SDS011;53653;52.188;8.602;2023-02-26T13:20:27;5.28;;;1.80;;
66739;SDS011;53653;52.188;8.602;2023-02-26T13:22:55;4.90;;;1.80;;
66739;SDS011;53653;52.188;8.602;2023-02-26T13:25:38;6.40;;;1.50;;
66739;SDS011;53653;52.188;8.602;2023-02-26T13:30:57;6.80;;;1.70;;
66739;SDS011;53653;52.188;8.602;2023-02-26T13:33:27;4.03;;;1.15;;
66739;SDS011;53653;52.188;8.602;2023-02-26T13:35:55;5.60;;;1.20;;
66739;SDS011;53653;52.188;8.602;2023-02-26T13:38:28;4.95;;;1.33;;
66739;SDS011;53653;52.188;8.602;2023-02-26T13:51:25;5.18;;;1.40;;
66739;SDS011;53653;52.188;8.602;2023-02-26T13:54:02;3.05;;;1.02;;
66739;SDS011;53653;52.188;8.602;2023-02-26T14:02:50;3.27;;;0.90;;
66739;SDS011;53653;52.188;8.602;2023-02-26T14:11:26;3.45;;;1.10;;
66739;SDS011;53653;52.188;8.602;2023-02-26T14:17:28;2.87;;;0.90;;
66739;SDS011;53653;52.188;8.602;2023-02-26T14:19:39;3.40;;;1.05;;
66739;SDS011;53653;52.188;8.602;2023-02-26T14:22:32;5.15;;;1.38;;
66739;SDS011;53653;52.188;8.602;2023-02-26T14:28:17;3.75;;;1.10;;
66739;SDS011;53653;52.188;8.602;2023-02-26T14:30:48;3.40;;;1.00;;
66739;SDS011;53653;52.188;8.602;2023-02-26T14:33:28;4.00;;;1.30;;
66739;SDS011;53653;52.188;8.602;2023-02-26T14:35:55;4.93;;;0.90;;
66739;SDS011;53653;52.188;8.602;2023-02-26T14:38:26;2.65;;;1.00;;
66739;SDS011;53653;52.188;8.602;2023-02-26T14:40:57;3.90;;;1.08;;
66739;SDS011;53653;52.188;8.602;2023-02-26T14:43:36;3.57;;;1.20;;
66739;SDS011;53653;52.188;8.602;2023-02-26T14:46:04;3.08;;;1.10;;
66739;SDS011;53653;52.188;8.602;2023-02-26T14:48:32;4.22;;;1.23;;
66739;SDS011;53653;52.188;8.602;2023-02-26T14:59:19;4.13;;;1.27;;
66739;SDS011;53653;52.188;8.602;2023-02-26T15:07:56;3.30;;;1.20;;
66739;SDS011;53653;52.188;8.602;2023-02-26T15:21:29;3.67;;;1.40;;
66739;SDS011;53653;52.188;8.602;2023-02-26T15:24:04;3.20;;;1.33;;
66739;SDS011;53653;52.188;8.602;2023-02-26T15:26:34;3.72;;;1.00;;
66739;SDS011;53653;52.188;8.602;2023-02-26T15:29:04;4.40;;;1.35;;
66739;SDS011;53653;52.188;8.602;2023-02-26T15:31:42;2.60;;;1.05;;
66739;SDS011;53653;52.188;8.602;2023-02-26T15:34:27;3.63;;;1.10;;
66739;SDS011;53653;52.188;8.602;2023-02-26T15:36:55;6.93;;;1.00;;
66739;SDS011;53653;52.188;8.602;2023-02-26T15:39:22;3.50;;;1.10;;
66739;SDS011;53653;52.188;8.602;2023-02-26T15:41:49;3.72;;;1.23;;
66739;SDS011;53653;52.188;8.602;2023-02-26T15:44:18;4.95;;;1.38;;
66739;SDS011;53653;52.188;8.602;2023-02-26T15:46:59;2.37;;;1.03;;
66739;SDS011;53653;52.188;8.602;2023-02-26T15:49:27;4.18;;;1.17;;
66739;SDS011;53653;52.188;8.602;2023-02-26T15:51:58;5.50;;;1.50;;
66739;SDS011;53653;52.188;8.602;2023-02-26T15:54:35;4.15;;;1.40;;
66739;SDS011;53653;52.188;8.602;2023-02-26T15:57:09;2.88;;;1.02;;
66739;SDS011;53653;52.188;8.602;2023-02-26T15:59:40;7.47;;;1.77;;
66739;SDS011;53653;52.188;8.602;2023-02-26T16:02:14;5.05;;;1.35;;
66739;SDS011;53653;52.188;8.602;2023-02-26T16:04:44;4.80;;;1.20;;
66739;SDS011;53653;52.188;8.602;2023-02-26T16:07:10;5.22;;;1.52;;
66739;SDS011;53653;52.188;8.602;2023-02-26T16:09:41;4.57;;;1.60;;
66739;SDS011;53653;52.188;8.602;2023-02-26T16:14:47;5.80;;;1.80;;
66739;SDS011;53653;52.188;8.602;2023-02-26T16:17:29;4.95;;;1.27;;
66739;SDS011;53653;52.188;8.602;2023-02-26T16:20:02;6.20;;;1.63;;
66739;SDS011;53653;52.188;8.602;2023-02-26T16:22:32;3.22;;;1.10;;
66739;SDS011;53653;52.188;8.602;2023-02-26T16:25:16;4.57;;;1.33;;
66739;SDS011;53653;52.188;8.602;2023-02-26T16:27:59;4.22;;;1.42;;
66739;SDS011;53653;52.188;8.602;2023-02-26T16:30:30;4.95;;;1.55;;
66739;SDS011;53653;52.188;8.602;2023-02-26T16:33:00;4.40;;;1.40;;
66739;SDS011;53653;52.188;8.602;2023-02-26T16:35:37;6.20;;;1.88;;
66739;SDS011;53653;52.188;8.602;2023-02-26T16:40:43;6.00;;;1.60;;
66739;SDS011;53653;52.188;8.602;2023-02-26T16:45:48;4.28;;;1.20;;
66739;SDS011;53653;52.188;8.602;2023-02-26T16:48:16;6.33;;;1.77;;
66739;SDS011;53653;52.188;8.602;2023-02-26T16:51:04;7.25;;;2.15;;
66739;SDS011;53653;52.188;8.602;2023-02-26T16:53:39;8.63;;;2.97;;
66739;SDS011;53653;52.188;8.602;2023-02-26T16:56:12;6.13;;;1.55;;
66739;SDS011;53653;52.188;8.602;2023-02-26T16:58:46;9.35;;;3.70;;
66739;SDS011;53653;52.188;8.602;2023-02-26T17:01:16;5.03;;;1.60;;
66739;SDS011;53653;52.188;8.602;2023-02-26T17:03:47;5.60;;;1.67;;
66739;SDS011;53653;52.188;8.602;2023-02-26T17:06:20;5.70;;;1.70;;
66739;SDS011;53653;52.188;8.602;2023-02-26T17:08:50;11.82;;;3.42;;
66739;SDS011;53653;52.188;8.602;2023-02-26T17:11:28;7.75;;;2.78;;
66739;SDS011;53653;52.188;8.602;2023-02-26T17:16:48;9.25;;;3.22;;
66739;SDS011;53653;52.188;8.602;2023-02-26T17:19:14;8.57;;;2.92;;
66739;SDS011;53653;52.188;8.602;2023-02-26T17:21:42;6.18;;;2.20;;
66739;SDS011;53653;52.188;8.602;2023-02-26T17:24:14;10.13;;;3.20;;
66739;SDS011;53653;52.188;8.602;2023-02-26T17:26:42;9.50;;;4.57;;
66739;SDS011;53653;52.188;8.602;2023-02-26T17:29:17;15.00;;;3.75;;
66739;SDS011;53653;52.188;8.602;2023-02-26T17:31:47;10.75;;;3.38;;
66739;SDS011;53653;52.188;8.602;2023-02-26T17:34:13;9.35;;;3.83;;
66739;SDS011;53653;52.188;8.602;2023-02-26T17:36:39;11.13;;;3.55;;
66739;SDS011;53653;52.188;8.602;2023-02-26T17:39:05;11.23;;;4.50;;
66739;SDS011;53653;52.188;8.602;2023-02-26T17:41:31;9.43;;;3.97;;
66739;SDS011;53653;52.188;8.602;2023-02-26T17:43:58;9.27;;;3.70;;
66739;SDS011;53653;52.188;8.602;2023-02-26T17:46:24;8.07;;;2.83;;
66739;SDS011;53653;52.188;8.602;2023-02-26T17:48:49;8.10;;;3.60;;
66739;SDS011;53653;52.188;8.602;2023-02-26T17:51:15;9.73;;;3.70;;
66739;SDS011;53653;52.188;8.602;2023-02-26T17:53:40;10.07;;;3.92;;
66739;SDS011;53653;52.188;8.602;2023-02-26T17:56:08;6.33;;;2.77;;
66739;SDS011;53653;52.188;8.602;2023-02-26T17:58:55;8.23;;;3.10;;
66739;SDS011;53653;52.188;8.602;2023-02-26T18:01:22;10.35;;;3.42;;
66739;SDS011;53653;52.188;8.602;2023-02-26T18:03:50;6.47;;;2.80;;
66739;SDS011;53653;52.188;8.602;2023-02-26T18:06:15;7.03;;;2.20;;
66739;SDS011;53653;52.188;8.602;2023-02-26T18:08:42;9.33;;;2.77;;
66739;SDS011;53653;52.188;8.602;2023-02-26T18:11:15;6.20;;;2.38;;
66739;SDS011;53653;52.188;8.602;2023-02-26T18:13:42;6.57;;;2.55;;
66739;SDS011;53653;52.188;8.602;2023-02-26T18:16:27;7.40;;;2.50;;
66739;SDS011;53653;52.188;8.602;2023-02-26T18:18:57;8.35;;;2.53;;
66739;SDS011;53653;52.188;8.602;2023-02-26T18:21:23;9.80;;;3.33;;
66739;SDS011;53653;52.188;8.602;2023-02-26T18:23:50;7.22;;;2.88;;
66739;SDS011;53653;52.188;8.602;2023-02-26T18:26:15;7.07;;;2.33;;
66739;SDS011;53653;52.188;8.602;2023-02-26T18:28:47;11.30;;;2.40;;
66739;SDS011;53653;52.188;8.602;2023-02-26T18:31:15;8.63;;;2.30;;
66739;SDS011;53653;52.188;8.602;2023-02-26T18:33:41;8.87;;;2.63;;